Terminal Aerodrome Forecast
Issued by NWS

Home | Current Version | Previous Version | Text Only | Print | Product List | Glossary On
Versions: 1 2 3 4 5 6 7 8 9 10 11 12 13 14 15 16 17 18 19 20 21 22 23 24 25 26 27 28
000
FTUS46 KMTR 272333
TAFSFO
TAF
KSFO 272333Z 2800/2906 28018KT P6SM FEW080 SCT180
     FM280400 28015KT P6SM SCT180
     FM280900 28009KT P6SM SCT180
     FM282100 28018G24KT P6SM SCT180
     FM290400 28015KT P6SM SCT180=

USA.gov is the U.S. government's official web portal to all federal, state and local government web resources and services.